Weather at Warsaw Chopin Airport

Public forecast

Using degrees Celsius for public forecast. Weather courtesy of forecast.io.

Current aviation weather report (METAR) for Warsaw Chopin Airport

Retrieved 2022/08/16 19:30 UTC (10 minutes ago):

EPWA 161930Z 06004KT CAVOK 25/18 Q1010 NOSIG

Aviation forecast (TAF) for Warsaw Chopin Airport

Retrieved 2022/08/16 18:33 UTC (1 hour ago):

TAF EPWA 161730Z 1618/1718 06005KT CAVOK PROB30 TEMPO 1700/1706 4000 BR PROB40 TEMPO 1712/1718 3000 TSRA SCT025CB